sensor_id;sensor_type;location;lat;lon;timestamp;temperature;humidity
25328;DHT22;13279;51.300;12.394;2023-05-07T00:00:52;10.10;99.90
25328;DHT22;13279;51.300;12.394;2023-05-07T00:03:31;10.00;99.90
25328;DHT22;13279;51.300;12.394;2023-05-07T00:06:03;9.90;99.90
25328;DHT22;13279;51.300;12.394;2023-05-07T00:08:56;9.90;99.90
25328;DHT22;13279;51.300;12.394;2023-05-07T00:11:43;9.90;99.90
25328;DHT22;13279;51.300;12.394;2023-05-07T00:14:30;9.80;99.90
25328;DHT22;13279;51.300;12.394;2023-05-07T00:17:13;9.80;99.90
25328;DHT22;13279;51.300;12.394;2023-05-07T00:19:59;9.80;99.90
25328;DHT22;13279;51.300;12.394;2023-05-07T00:22:40;9.70;99.90
25328;DHT22;13279;51.300;12.394;2023-05-07T00:25:39;9.70;99.90
25328;DHT22;13279;51.300;12.394;2023-05-07T00:28:33;9.70;99.90
25328;DHT22;13279;51.300;12.394;2023-05-07T00:31:13;9.70;99.90
25328;DHT22;13279;51.300;12.394;2023-05-07T00:33:55;9.70;99.90
25328;DHT22;13279;51.300;12.394;2023-05-07T00:36:37;9.70;99.90
25328;DHT22;13279;51.300;12.394;2023-05-07T00:39:20;9.80;99.90
25328;DHT22;13279;51.300;12.394;2023-05-07T00:41:52;9.80;99.90
25328;DHT22;13279;51.300;12.394;2023-05-07T00:44:49;9.80;99.90
25328;DHT22;13279;51.300;12.394;2023-05-07T00:51:10;9.80;99.90
25328;DHT22;13279;51.300;12.394;2023-05-07T00:54:24;9.80;99.90
25328;DHT22;13279;51.300;12.394;2023-05-07T00:57:27;9.80;99.90
25328;DHT22;13279;51.300;12.394;2023-05-07T01:00:05;9.80;99.90
25328;DHT22;13279;51.300;12.394;2023-05-07T01:02:56;9.80;99.90
25328;DHT22;13279;51.300;12.394;2023-05-07T01:05:45;9.70;99.90
25328;DHT22;13279;51.300;12.394;2023-05-07T01:08:49;9.80;99.90
25328;DHT22;13279;51.300;12.394;2023-05-07T01:11:33;9.80;99.90
25328;DHT22;13279;51.300;12.394;2023-05-07T01:14:38;9.80;99.90
25328;DHT22;13279;51.300;12.394;2023-05-07T01:17:07;9.80;99.90
25328;DHT22;13279;51.300;12.394;2023-05-07T01:20:09;9.80;99.90
25328;DHT22;13279;51.300;12.394;2023-05-07T01:23:06;9.80;99.90
25328;DHT22;13279;51.300;12.394;2023-05-07T01:26:25;9.80;99.90
25328;DHT22;13279;51.300;12.394;2023-05-07T01:29:17;9.70;99.90
25328;DHT22;13279;51.300;12.394;2023-05-07T01:32:00;9.70;99.90
25328;DHT22;13279;51.300;12.394;2023-05-07T01:34:50;9.70;99.90
25328;DHT22;13279;51.300;12.394;2023-05-07T01:37:23;9.70;99.90
25328;DHT22;13279;51.300;12.394;2023-05-07T01:40:12;9.70;99.90
25328;DHT22;13279;51.300;12.394;2023-05-07T01:43:04;9.70;99.90
25328;DHT22;13279;51.300;12.394;2023-05-07T01:46:03;9.70;99.90
25328;DHT22;13279;51.300;12.394;2023-05-07T01:48:54;9.70;99.90
25328;DHT22;13279;51.300;12.394;2023-05-07T01:52:11;9.80;99.90
25328;DHT22;13279;51.300;12.394;2023-05-07T01:54:58;9.70;99.90
25328;DHT22;13279;51.300;12.394;2023-05-07T01:58:08;9.80;99.90
25328;DHT22;13279;51.300;12.394;2023-05-07T02:00:55;9.60;99.90
25328;DHT22;13279;51.300;12.394;2023-05-07T02:03:39;9.60;99.90
25328;DHT22;13279;51.300;12.394;2023-05-07T02:06:22;9.60;99.90
25328;DHT22;13279;51.300;12.394;2023-05-07T02:09:13;9.60;99.90
25328;DHT22;13279;51.300;12.394;2023-05-07T02:11:53;9.60;99.90
25328;DHT22;13279;51.300;12.394;2023-05-07T02:18:04;9.60;99.90
25328;DHT22;13279;51.300;12.394;2023-05-07T02:20:45;9.60;99.90
25328;DHT22;13279;51.300;12.394;2023-05-07T02:23:22;9.60;99.90
25328;DHT22;13279;51.300;12.394;2023-05-07T02:26:08;9.50;99.90
25328;DHT22;13279;51.300;12.394;2023-05-07T02:28:42;9.50;99.90
25328;DHT22;13279;51.300;12.394;2023-05-07T02:31:19;9.60;99.90
25328;DHT22;13279;51.300;12.394;2023-05-07T02:34:02;9.50;99.90
25328;DHT22;13279;51.300;12.394;2023-05-07T02:36:46;9.60;99.90
25328;DHT22;13279;51.300;12.394;2023-05-07T02:39:33;9.60;99.90
25328;DHT22;13279;51.300;12.394;2023-05-07T02:42:14;9.50;99.90
25328;DHT22;13279;51.300;12.394;2023-05-07T02:44:58;9.50;99.90
25328;DHT22;13279;51.300;12.394;2023-05-07T02:47:41;9.50;99.90
25328;DHT22;13279;51.300;12.394;2023-05-07T02:50:30;9.60;99.90
25328;DHT22;13279;51.300;12.394;2023-05-07T02:53:25;9.50;99.90
25328;DHT22;13279;51.300;12.394;2023-05-07T02:56:02;9.50;99.90
25328;DHT22;13279;51.300;12.394;2023-05-07T03:01:38;9.50;99.90
25328;DHT22;13279;51.300;12.394;2023-05-07T03:04:18;9.50;99.90
25328;DHT22;13279;51.300;12.394;2023-05-07T03:07:05;9.50;99.90
25328;DHT22;13279;51.300;12.394;2023-05-07T03:09:36;9.50;99.90
25328;DHT22;13279;51.300;12.394;2023-05-07T03:12:11;9.50;99.90
25328;DHT22;13279;51.300;12.394;2023-05-07T03:14:47;9.50;99.90
25328;DHT22;13279;51.300;12.394;2023-05-07T03:17:30;9.40;99.90
25328;DHT22;13279;51.300;12.394;2023-05-07T03:20:47;9.40;99.90
25328;DHT22;13279;51.300;12.394;2023-05-07T03:23:25;9.30;99.90
25328;DHT22;13279;51.300;12.394;2023-05-07T03:26:06;9.40;99.90
25328;DHT22;13279;51.300;12.394;2023-05-07T03:28:40;9.50;99.90
25328;DHT22;13279;51.300;12.394;2023-05-07T03:31:36;9.40;99.90
25328;DHT22;13279;51.300;12.394;2023-05-07T03:34:45;9.40;99.90
25328;DHT22;13279;51.300;12.394;2023-05-07T03:37:37;9.40;99.90
25328;DHT22;13279;51.300;12.394;2023-05-07T03:40:38;9.50;99.90
25328;DHT22;13279;51.300;12.394;2023-05-07T03:46:22;9.50;99.90
25328;DHT22;13279;51.300;12.394;2023-05-07T03:48:59;9.50;99.90
25328;DHT22;13279;51.300;12.394;2023-05-07T03:51:36;9.60;99.90
25328;DHT22;13279;51.300;12.394;2023-05-07T03:54:21;9.50;99.90
25328;DHT22;13279;51.300;12.394;2023-05-07T03:57:23;9.60;99.90
25328;DHT22;13279;51.300;12.394;2023-05-07T04:00:22;9.60;99.90
25328;DHT22;13279;51.300;12.394;2023-05-07T04:06:16;9.60;99.90
25328;DHT22;13279;51.300;12.394;2023-05-07T04:09:00;9.60;99.90
25328;DHT22;13279;51.300;12.394;2023-05-07T04:11:42;9.60;99.90
25328;DHT22;13279;51.300;12.394;2023-05-07T04:14:30;9.60;99.90
25328;DHT22;13279;51.300;12.394;2023-05-07T04:17:26;9.80;99.90
25328;DHT22;13279;51.300;12.394;2023-05-07T04:20:02;9.60;99.90
25328;DHT22;13279;51.300;12.394;2023-05-07T04:22:41;9.40;99.90
25328;DHT22;13279;51.300;12.394;2023-05-07T04:25:12;9.60;99.90
25328;DHT22;13279;51.300;12.394;2023-05-07T04:27:47;9.60;99.90
25328;DHT22;13279;51.300;12.394;2023-05-07T04:30:32;9.60;99.90
25328;DHT22;13279;51.300;12.394;2023-05-07T04:33:05;9.60;99.90
25328;DHT22;13279;51.300;12.394;2023-05-07T04:36:11;9.60;99.90
25328;DHT22;13279;51.300;12.394;2023-05-07T04:39:06;9.60;99.90
25328;DHT22;13279;51.300;12.394;2023-05-07T04:41:42;9.70;99.90
25328;DHT22;13279;51.300;12.394;2023-05-07T04:44:40;9.80;99.90
25328;DHT22;13279;51.300;12.394;2023-05-07T04:47:20;9.80;99.90
25328;DHT22;13279;51.300;12.394;2023-05-07T04:50:28;9.80;99.90
25328;DHT22;13279;51.300;12.394;2023-05-07T04:53:27;9.70;99.90
25328;DHT22;13279;51.300;12.394;2023-05-07T04:59:42;9.70;99.90
25328;DHT22;13279;51.300;12.394;2023-05-07T05:02:24;9.70;99.90
25328;DHT22;13279;51.300;12.394;2023-05-07T05:05:13;9.70;99.90
25328;DHT22;13279;51.300;12.394;2023-05-07T05:08:09;9.70;99.90
25328;DHT22;13279;51.300;12.394;2023-05-07T05:10:52;9.70;99.90
25328;DHT22;13279;51.300;12.394;2023-05-07T05:13:29;9.70;99.90
25328;DHT22;13279;51.300;12.394;2023-05-07T05:16:14;9.80;99.90
25328;DHT22;13279;51.300;12.394;2023-05-07T05:22:21;9.70;99.90
25328;DHT22;13279;51.300;12.394;2023-05-07T05:25:00;9.70;99.90
25328;DHT22;13279;51.300;12.394;2023-05-07T05:31:06;9.90;99.90
25328;DHT22;13279;51.300;12.394;2023-05-07T05:33:59;9.80;99.90
25328;DHT22;13279;51.300;12.394;2023-05-07T05:36:59;9.80;99.90
25328;DHT22;13279;51.300;12.394;2023-05-07T05:39:30;9.80;99.90
25328;DHT22;13279;51.300;12.394;2023-05-07T05:42:11;9.80;99.90
25328;DHT22;13279;51.300;12.394;2023-05-07T05:44:50;9.80;99.90
25328;DHT22;13279;51.300;12.394;2023-05-07T05:47:28;9.80;99.90
25328;DHT22;13279;51.300;12.394;2023-05-07T05:50:06;9.90;99.90
25328;DHT22;13279;51.300;12.394;2023-05-07T05:53:06;9.90;99.90
25328;DHT22;13279;51.300;12.394;2023-05-07T05:55:48;9.80;99.90
25328;DHT22;13279;51.300;12.394;2023-05-07T05:58:23;9.80;99.90
25328;DHT22;13279;51.300;12.394;2023-05-07T06:01:14;9.90;99.90
25328;DHT22;13279;51.300;12.394;2023-05-07T06:03:56;9.80;99.90
25328;DHT22;13279;51.300;12.394;2023-05-07T06:06:33;9.80;99.90
25328;DHT22;13279;51.300;12.394;2023-05-07T06:09:15;9.80;99.90
25328;DHT22;13279;51.300;12.394;2023-05-07T06:11:56;9.90;99.90
25328;DHT22;13279;51.300;12.394;2023-05-07T06:14:37;10.00;99.90
25328;DHT22;13279;51.300;12.394;2023-05-07T06:17:38;10.00;99.90
25328;DHT22;13279;51.300;12.394;2023-05-07T06:20:17;10.10;99.90
25328;DHT22;13279;51.300;12.394;2023-05-07T06:23:10;10.10;99.90
25328;DHT22;13279;51.300;12.394;2023-05-07T06:28:59;10.20;99.90
25328;DHT22;13279;51.300;12.394;2023-05-07T06:31:41;10.10;99.90
25328;DHT22;13279;51.300;12.394;2023-05-07T06:34:41;10.10;99.90
25328;DHT22;13279;51.300;12.394;2023-05-07T06:37:31;10.10;99.90
25328;DHT22;13279;51.300;12.394;2023-05-07T06:40:12;10.10;99.90
25328;DHT22;13279;51.300;12.394;2023-05-07T06:43:00;10.10;99.90
25328;DHT22;13279;51.300;12.394;2023-05-07T06:46:02;10.10;99.90
25328;DHT22;13279;51.300;12.394;2023-05-07T06:48:49;10.00;99.90
25328;DHT22;13279;51.300;12.394;2023-05-07T06:51:28;10.10;99.90
25328;DHT22;13279;51.300;12.394;2023-05-07T06:54:15;10.00;99.90
25328;DHT22;13279;51.300;12.394;2023-05-07T06:56:46;10.10;99.90
25328;DHT22;13279;51.300;12.394;2023-05-07T06:59:25;10.00;99.90
25328;DHT22;13279;51.300;12.394;2023-05-07T07:02:17;10.10;99.90
25328;DHT22;13279;51.300;12.394;2023-05-07T07:04:56;10.10;99.90
25328;DHT22;13279;51.300;12.394;2023-05-07T07:07:24;10.10;99.90
25328;DHT22;13279;51.300;12.394;2023-05-07T07:09:55;10.10;99.90
25328;DHT22;13279;51.300;12.394;2023-05-07T07:12:39;10.20;99.90
25328;DHT22;13279;51.300;12.394;2023-05-07T07:15:22;10.20;99.90
25328;DHT22;13279;51.300;12.394;2023-05-07T07:18:05;10.30;99.90
25328;DHT22;13279;51.300;12.394;2023-05-07T07:20:52;10.40;99.90
25328;DHT22;13279;51.300;12.394;2023-05-07T07:23:59;10.40;99.90
25328;DHT22;13279;51.300;12.394;2023-05-07T07:27:00;10.40;99.90
25328;DHT22;13279;51.300;12.394;2023-05-07T07:29:48;10.60;99.90
25328;DHT22;13279;51.300;12.394;2023-05-07T07:33:09;10.70;99.90
25328;DHT22;13279;51.300;12.394;2023-05-07T07:38:24;10.80;59.40
25328;DHT22;13279;51.300;12.394;2023-05-07T07:40:59;10.80;43.40
25328;DHT22;13279;51.300;12.394;2023-05-07T07:43:28;10.90;19.70
25328;DHT22;13279;51.300;12.394;2023-05-07T07:45:56;10.90;15.60
25328;DHT22;13279;51.300;12.394;2023-05-07T07:48:26;10.90;34.30
25328;DHT22;13279;51.300;12.394;2023-05-07T07:50:55;11.00;20.40
25328;DHT22;13279;51.300;12.394;2023-05-07T07:53:23;10.90;8.70
25328;DHT22;13279;51.300;12.394;2023-05-07T07:55:52;10.80;1.00
25328;DHT22;13279;51.300;12.394;2023-05-07T07:58:22;10.80;1.00
25328;DHT22;13279;51.300;12.394;2023-05-07T08:00:52;10.80;1.00
25328;DHT22;13279;51.300;12.394;2023-05-07T08:03:23;10.70;5.20
25328;DHT22;13279;51.300;12.394;2023-05-07T08:05:57;10.70;1.00
25328;DHT22;13279;51.300;12.394;2023-05-07T08:08:29;10.80;1.00
25328;DHT22;13279;51.300;12.394;2023-05-07T08:10:57;10.80;1.00
25328;DHT22;13279;51.300;12.394;2023-05-07T08:13:30;10.80;1.00
25328;DHT22;13279;51.300;12.394;2023-05-07T08:16:00;10.90;1.00
25328;DHT22;13279;51.300;12.394;2023-05-07T08:18:27;10.90;1.00
25328;DHT22;13279;51.300;12.394;2023-05-07T08:21:01;11.00;1.00
25328;DHT22;13279;51.300;12.394;2023-05-07T08:23:30;11.10;1.00
25328;DHT22;13279;51.300;12.394;2023-05-07T08:26:01;11.20;1.00
25328;DHT22;13279;51.300;12.394;2023-05-07T08:28:45;11.40;1.00
25328;DHT22;13279;51.300;12.394;2023-05-07T08:31:33;11.50;1.00
25328;DHT22;13279;51.300;12.394;2023-05-07T08:34:08;11.50;1.00
25328;DHT22;13279;51.300;12.394;2023-05-07T08:36:45;11.40;1.00
25328;DHT22;13279;51.300;12.394;2023-05-07T08:39:29;11.40;1.00
25328;DHT22;13279;51.300;12.394;2023-05-07T08:42:07;11.40;1.00
25328;DHT22;13279;51.300;12.394;2023-05-07T08:44:53;11.30;1.00
25328;DHT22;13279;51.300;12.394;2023-05-07T08:47:51;11.30;1.00
25328;DHT22;13279;51.300;12.394;2023-05-07T08:50:28;11.20;1.00
25328;DHT22;13279;51.300;12.394;2023-05-07T08:53:11;11.10;1.00
25328;DHT22;13279;51.300;12.394;2023-05-07T08:55:48;11.20;1.00
25328;DHT22;13279;51.300;12.394;2023-05-07T08:58:29;11.30;1.00
25328;DHT22;13279;51.300;12.394;2023-05-07T09:01:13;11.20;1.00
25328;DHT22;13279;51.300;12.394;2023-05-07T09:03:58;11.20;1.00
25328;DHT22;13279;51.300;12.394;2023-05-07T09:06:33;11.10;1.00
25328;DHT22;13279;51.300;12.394;2023-05-07T09:09:14;11.10;1.00
25328;DHT22;13279;51.300;12.394;2023-05-07T09:11:57;11.20;1.00
25328;DHT22;13279;51.300;12.394;2023-05-07T09:14:32;11.20;1.00
25328;DHT22;13279;51.300;12.394;2023-05-07T09:17:04;11.20;1.00
25328;DHT22;13279;51.300;12.394;2023-05-07T09:19:47;11.20;1.00
25328;DHT22;13279;51.300;12.394;2023-05-07T09:22:21;11.20;1.00
25328;DHT22;13279;51.300;12.394;2023-05-07T09:24:57;11.30;1.00
25328;DHT22;13279;51.300;12.394;2023-05-07T09:27:27;11.30;1.00
25328;DHT22;13279;51.300;12.394;2023-05-07T09:29:55;11.20;1.00
25328;DHT22;13279;51.300;12.394;2023-05-07T09:32:25;11.20;1.00
25328;DHT22;13279;51.300;12.394;2023-05-07T09:34:54;11.20;1.00
25328;DHT22;13279;51.300;12.394;2023-05-07T09:37:26;11.20;1.00
25328;DHT22;13279;51.300;12.394;2023-05-07T09:39:58;11.20;1.00
25328;DHT22;13279;51.300;12.394;2023-05-07T09:42:29;11.20;1.00
25328;DHT22;13279;51.300;12.394;2023-05-07T09:45:00;11.30;1.00
25328;DHT22;13279;51.300;12.394;2023-05-07T09:47:48;11.30;1.00
25328;DHT22;13279;51.300;12.394;2023-05-07T09:56:55;11.40;1.00
25328;DHT22;13279;51.300;12.394;2023-05-07T09:59:52;11.60;1.00
25328;DHT22;13279;51.300;12.394;2023-05-07T10:02:56;11.60;1.00
25328;DHT22;13279;51.300;12.394;2023-05-07T10:06:01;11.60;1.00
25328;DHT22;13279;51.300;12.394;2023-05-07T10:08:54;11.40;1.00
25328;DHT22;13279;51.300;12.394;2023-05-07T10:11:26;11.30;1.00
25328;DHT22;13279;51.300;12.394;2023-05-07T10:13:55;11.30;1.00
25328;DHT22;13279;51.300;12.394;2023-05-07T10:16:23;11.30;1.00
25328;DHT22;13279;51.300;12.394;2023-05-07T10:18:54;11.30;1.00
25328;DHT22;13279;51.300;12.394;2023-05-07T10:21:23;11.40;1.00
25328;DHT22;13279;51.300;12.394;2023-05-07T10:23:59;11.30;1.00
25328;DHT22;13279;51.300;12.394;2023-05-07T10:26:30;11.40;1.00
25328;DHT22;13279;51.300;12.394;2023-05-07T10:29:05;11.60;1.00
25328;DHT22;13279;51.300;12.394;2023-05-07T10:31:48;11.60;1.00
25328;DHT22;13279;51.300;12.394;2023-05-07T10:34:26;11.70;1.00
25328;DHT22;13279;51.300;12.394;2023-05-07T10:36:56;11.80;1.00
25328;DHT22;13279;51.300;12.394;2023-05-07T10:39:24;12.00;1.00
25328;DHT22;13279;51.300;12.394;2023-05-07T10:41:52;12.00;1.00
25328;DHT22;13279;51.300;12.394;2023-05-07T10:44:28;12.00;1.00
25328;DHT22;13279;51.300;12.394;2023-05-07T10:47:06;12.00;1.00
25328;DHT22;13279;51.300;12.394;2023-05-07T10:49:51;12.00;1.00
25328;DHT22;13279;51.300;12.394;2023-05-07T10:52:41;12.00;1.00
25328;DHT22;13279;51.300;12.394;2023-05-07T10:55:21;11.90;1.00
25328;DHT22;13279;51.300;12.394;2023-05-07T10:58:23;12.00;1.00
25328;DHT22;13279;51.300;12.394;2023-05-07T11:00:59;12.00;1.00
25328;DHT22;13279;51.300;12.394;2023-05-07T11:03:33;12.00;1.00
25328;DHT22;13279;51.300;12.394;2023-05-07T11:06:11;12.10;1.00
25328;DHT22;13279;51.300;12.394;2023-05-07T11:08:59;12.00;1.00
25328;DHT22;13279;51.300;12.394;2023-05-07T11:11:47;11.80;1.00
25328;DHT22;13279;51.300;12.394;2023-05-07T11:14:43;11.90;1.00
25328;DHT22;13279;51.300;12.394;2023-05-07T11:17:21;12.10;1.00
25328;DHT22;13279;51.300;12.394;2023-05-07T11:19:56;12.20;1.00
25328;DHT22;13279;51.300;12.394;2023-05-07T11:22:54;12.40;1.00
25328;DHT22;13279;51.300;12.394;2023-05-07T11:25:32;12.40;1.00
25328;DHT22;13279;51.300;12.394;2023-05-07T11:28:21;12.50;1.00
25328;DHT22;13279;51.300;12.394;2023-05-07T11:31:01;12.60;1.00
25328;DHT22;13279;51.300;12.394;2023-05-07T11:33:31;12.60;1.00
25328;DHT22;13279;51.300;12.394;2023-05-07T11:36:03;12.70;1.00
25328;DHT22;13279;51.300;12.394;2023-05-07T11:38:37;12.70;1.00
25328;DHT22;13279;51.300;12.394;2023-05-07T11:41:06;12.60;1.00
25328;DHT22;13279;51.300;12.394;2023-05-07T11:43:34;12.70;1.00
25328;DHT22;13279;51.300;12.394;2023-05-07T11:46:06;12.50;1.00
25328;DHT22;13279;51.300;12.394;2023-05-07T11:49:11;12.50;1.00
25328;DHT22;13279;51.300;12.394;2023-05-07T11:51:47;12.50;1.00
25328;DHT22;13279;51.300;12.394;2023-05-07T11:54:18;12.70;1.00
25328;DHT22;13279;51.300;12.394;2023-05-07T11:57:53;12.90;1.00
25328;DHT22;13279;51.300;12.394;2023-05-07T12:00:21;12.90;1.00
25328;DHT22;13279;51.300;12.394;2023-05-07T12:03:26;12.70;1.00
25328;DHT22;13279;51.300;12.394;2023-05-07T12:06:21;12.40;1.00
25328;DHT22;13279;51.300;12.394;2023-05-07T12:09:29;12.50;1.00
25328;DHT22;13279;51.300;12.394;2023-05-07T12:12:13;12.50;1.00
25328;DHT22;13279;51.300;12.394;2023-05-07T12:14:58;12.50;1.00
25328;DHT22;13279;51.300;12.394;2023-05-07T12:17:46;12.50;1.00
25328;DHT22;13279;51.300;12.394;2023-05-07T12:20:46;12.50;1.00
25328;DHT22;13279;51.300;12.394;2023-05-07T12:23:34;12.60;1.00
25328;DHT22;13279;51.300;12.394;2023-05-07T12:26:11;12.80;1.00
25328;DHT22;13279;51.300;12.394;2023-05-07T12:28:57;13.00;1.00
25328;DHT22;13279;51.300;12.394;2023-05-07T12:31:36;13.10;1.00
25328;DHT22;13279;51.300;12.394;2023-05-07T12:34:35;13.00;1.00
25328;DHT22;13279;51.300;12.394;2023-05-07T12:37:56;12.80;1.00
25328;DHT22;13279;51.300;12.394;2023-05-07T12:40:42;13.10;1.00
25328;DHT22;13279;51.300;12.394;2023-05-07T12:43:33;13.30;1.00
25328;DHT22;13279;51.300;12.394;2023-05-07T12:46:12;13.60;1.00
25328;DHT22;13279;51.300;12.394;2023-05-07T12:48:56;13.40;1.00
25328;DHT22;13279;51.300;12.394;2023-05-07T12:52:01;13.10;1.00
25328;DHT22;13279;51.300;12.394;2023-05-07T12:55:04;13.20;1.00
25328;DHT22;13279;51.300;12.394;2023-05-07T12:58:28;13.20;1.00
25328;DHT22;13279;51.300;12.394;2023-05-07T13:01:30;13.20;1.00
25328;DHT22;13279;51.300;12.394;2023-05-07T13:04:02;13.30;1.00
25328;DHT22;13279;51.300;12.394;2023-05-07T13:06:30;13.40;1.00
25328;DHT22;13279;51.300;12.394;2023-05-07T13:08:57;13.50;1.00
25328;DHT22;13279;51.300;12.394;2023-05-07T13:11:25;13.40;1.00
25328;DHT22;13279;51.300;12.394;2023-05-07T13:13:57;13.40;1.00
25328;DHT22;13279;51.300;12.394;2023-05-07T13:16:24;13.40;1.00
25328;DHT22;13279;51.300;12.394;2023-05-07T13:18:52;13.50;1.00
25328;DHT22;13279;51.300;12.394;2023-05-07T13:21:19;13.70;1.00
25328;DHT22;13279;51.300;12.394;2023-05-07T13:23:47;14.10;1.00
25328;DHT22;13279;51.300;12.394;2023-05-07T13:26:15;14.30;99.90
25328;DHT22;13279;51.300;12.394;2023-05-07T13:28:45;14.70;99.90
25328;DHT22;13279;51.300;12.394;2023-05-07T13:31:14;14.50;99.90
25328;DHT22;13279;51.300;12.394;2023-05-07T13:33:41;14.30;99.90
25328;DHT22;13279;51.300;12.394;2023-05-07T13:36:09;14.10;99.90
25328;DHT22;13279;51.300;12.394;2023-05-07T13:38:39;14.20;99.90
25328;DHT22;13279;51.300;12.394;2023-05-07T13:41:08;14.30;99.90
25328;DHT22;13279;51.300;12.394;2023-05-07T13:43:39;14.10;99.90
25328;DHT22;13279;51.300;12.394;2023-05-07T13:46:36;14.00;99.90
25328;DHT22;13279;51.300;12.394;2023-05-07T13:49:04;13.80;1.00
25328;DHT22;13279;51.300;12.394;2023-05-07T13:51:31;13.90;1.00
25328;DHT22;13279;51.300;12.394;2023-05-07T13:53:58;13.90;1.00
25328;DHT22;13279;51.300;12.394;2023-05-07T13:56:25;13.80;1.00
25328;DHT22;13279;51.300;12.394;2023-05-07T13:58:54;13.80;1.00
25328;DHT22;13279;51.300;12.394;2023-05-07T14:01:22;13.60;1.00
25328;DHT22;13279;51.300;12.394;2023-05-07T14:03:52;13.50;1.00
25328;DHT22;13279;51.300;12.394;2023-05-07T14:06:25;13.70;1.00
25328;DHT22;13279;51.300;12.394;2023-05-07T14:08:53;13.70;1.00
25328;DHT22;13279;51.300;12.394;2023-05-07T14:11:21;13.70;1.00
25328;DHT22;13279;51.300;12.394;2023-05-07T14:13:48;13.60;1.00
25328;DHT22;13279;51.300;12.394;2023-05-07T14:16:16;13.70;1.00
25328;DHT22;13279;51.300;12.394;2023-05-07T14:18:46;13.90;1.00
25328;DHT22;13279;51.300;12.394;2023-05-07T14:21:15;14.00;1.00
25328;DHT22;13279;51.300;12.394;2023-05-07T14:23:42;14.30;1.00
25328;DHT22;13279;51.300;12.394;2023-05-07T14:26:09;14.30;1.00
25328;DHT22;13279;51.300;12.394;2023-05-07T14:28:38;14.40;1.00
25328;DHT22;13279;51.300;12.394;2023-05-07T14:31:05;14.40;99.90
25328;DHT22;13279;51.300;12.394;2023-05-07T14:33:34;14.20;99.90
25328;DHT22;13279;51.300;12.394;2023-05-07T14:36:06;14.00;99.90
25328;DHT22;13279;51.300;12.394;2023-05-07T14:38:39;13.90;1.00
25328;DHT22;13279;51.300;12.394;2023-05-07T14:41:07;14.10;1.00
25328;DHT22;13279;51.300;12.394;2023-05-07T14:43:37;14.10;99.90
25328;DHT22;13279;51.300;12.394;2023-05-07T14:46:05;14.20;99.90
25328;DHT22;13279;51.300;12.394;2023-05-07T14:48:32;14.60;99.90
25328;DHT22;13279;51.300;12.394;2023-05-07T14:51:03;14.90;99.90
25328;DHT22;13279;51.300;12.394;2023-05-07T14:53:33;15.00;99.90
25328;DHT22;13279;51.300;12.394;2023-05-07T14:56:06;14.90;99.90
25328;DHT22;13279;51.300;12.394;2023-05-07T14:58:33;14.80;99.90
25328;DHT22;13279;51.300;12.394;2023-05-07T15:01:25;14.80;99.90
25328;DHT22;13279;51.300;12.394;2023-05-07T15:03:54;14.80;99.90
25328;DHT22;13279;51.300;12.394;2023-05-07T15:06:26;14.90;99.90
25328;DHT22;13279;51.300;12.394;2023-05-07T15:08:53;14.80;99.90
25328;DHT22;13279;51.300;12.394;2023-05-07T15:11:23;14.70;99.90
25328;DHT22;13279;51.300;12.394;2023-05-07T15:13:52;14.60;99.90
25328;DHT22;13279;51.300;12.394;2023-05-07T15:16:19;14.30;99.90
25328;DHT22;13279;51.300;12.394;2023-05-07T15:18:50;14.20;99.90
25328;DHT22;13279;51.300;12.394;2023-05-07T15:21:19;14.30;99.90
25328;DHT22;13279;51.300;12.394;2023-05-07T15:23:46;14.20;99.90
25328;DHT22;13279;51.300;12.394;2023-05-07T15:26:14;14.10;99.90
25328;DHT22;13279;51.300;12.394;2023-05-07T15:28:43;14.10;99.90
25328;DHT22;13279;51.300;12.394;2023-05-07T15:31:11;13.90;99.90
25328;DHT22;13279;51.300;12.394;2023-05-07T15:33:38;13.80;99.90
25328;DHT22;13279;51.300;12.394;2023-05-07T15:36:07;13.80;99.90
25328;DHT22;13279;51.300;12.394;2023-05-07T15:38:34;13.80;99.90
25328;DHT22;13279;51.300;12.394;2023-05-07T15:41:02;13.70;99.90
25328;DHT22;13279;51.300;12.394;2023-05-07T15:43:29;13.70;1.00
25328;DHT22;13279;51.300;12.394;2023-05-07T15:45:58;13.70;1.00
25328;DHT22;13279;51.300;12.394;2023-05-07T15:48:26;13.80;1.00
25328;DHT22;13279;51.300;12.394;2023-05-07T15:50:53;13.80;99.90
25328;DHT22;13279;51.300;12.394;2023-05-07T15:53:20;13.90;1.00
25328;DHT22;13279;51.300;12.394;2023-05-07T15:55:48;14.00;1.00
25328;DHT22;13279;51.300;12.394;2023-05-07T15:58:15;13.80;1.00
25328;DHT22;13279;51.300;12.394;2023-05-07T16:00:45;13.90;1.00
25328;DHT22;13279;51.300;12.394;2023-05-07T16:03:13;13.90;1.00
25328;DHT22;13279;51.300;12.394;2023-05-07T16:05:41;13.70;1.00
25328;DHT22;13279;51.300;12.394;2023-05-07T16:08:08;13.50;1.00
25328;DHT22;13279;51.300;12.394;2023-05-07T16:10:36;13.50;1.00
25328;DHT22;13279;51.300;12.394;2023-05-07T16:13:03;13.50;1.00
25328;DHT22;13279;51.300;12.394;2023-05-07T16:15:31;13.40;1.00
25328;DHT22;13279;51.300;12.394;2023-05-07T16:17:58;13.40;1.00
25328;DHT22;13279;51.300;12.394;2023-05-07T16:20:29;13.50;1.00
25328;DHT22;13279;51.300;12.394;2023-05-07T16:22:56;13.40;1.00
25328;DHT22;13279;51.300;12.394;2023-05-07T16:25:28;13.30;1.00
25328;DHT22;13279;51.300;12.394;2023-05-07T16:27:55;13.30;1.00
25328;DHT22;13279;51.300;12.394;2023-05-07T16:30:22;13.30;1.00
25328;DHT22;13279;51.300;12.394;2023-05-07T16:32:50;13.30;1.00
25328;DHT22;13279;51.300;12.394;2023-05-07T16:35:17;13.50;1.00
25328;DHT22;13279;51.300;12.394;2023-05-07T16:37:46;13.60;1.00
25328;DHT22;13279;51.300;12.394;2023-05-07T16:40:14;13.50;1.00
25328;DHT22;13279;51.300;12.394;2023-05-07T16:42:41;13.50;1.00
25328;DHT22;13279;51.300;12.394;2023-05-07T16:45:09;13.50;1.00
25328;DHT22;13279;51.300;12.394;2023-05-07T16:47:36;13.40;1.00
25328;DHT22;13279;51.300;12.394;2023-05-07T16:50:05;13.20;1.00
25328;DHT22;13279;51.300;12.394;2023-05-07T16:52:32;13.10;1.00
25328;DHT22;13279;51.300;12.394;2023-05-07T16:55:02;13.10;1.00
25328;DHT22;13279;51.300;12.394;2023-05-07T16:57:29;13.10;1.00
25328;DHT22;13279;51.300;12.394;2023-05-07T16:59:58;13.10;1.00
25328;DHT22;13279;51.300;12.394;2023-05-07T17:02:25;13.00;1.00
25328;DHT22;13279;51.300;12.394;2023-05-07T17:04:53;12.90;1.00
25328;DHT22;13279;51.300;12.394;2023-05-07T17:07:20;12.80;1.00
25328;DHT22;13279;51.300;12.394;2023-05-07T17:09:47;12.70;1.00
25328;DHT22;13279;51.300;12.394;2023-05-07T17:12:16;12.60;1.00
25328;DHT22;13279;51.300;12.394;2023-05-07T17:14:44;12.60;1.00
25328;DHT22;13279;51.300;12.394;2023-05-07T17:17:11;12.50;1.00
25328;DHT22;13279;51.300;12.394;2023-05-07T17:19:39;12.50;1.00
25328;DHT22;13279;51.300;12.394;2023-05-07T17:22:06;12.50;1.00
25328;DHT22;13279;51.300;12.394;2023-05-07T17:24:34;12.60;1.00